Startpagina
METAR-TAF:

METAR-TAF

Vliegvelden :

Pointe-Noire, Congo

Luchthaven Pointe-Noire

breedte: 04-49S, lengte: 011-54E, hoogte: 17 m

Actueel weer

Dit bericht is 58 minuten geleden gemaakt, om 11:00 UTC
Wind 10 kt uit het zuidwesten
Temperatuur 26°C
Vochtigheid 74%
Druk 1014 hPa
Zicht: 8000 m
Weinig wolken op 1500 ft

METAR: FCPP 221100Z 22010KT 8000 FEW015 26/21 Q1014 NOSIG

Tijdstip: 12:58 (11:58 UTC)

Verwachting

Dit bericht is 58 minuten geleden gemaakt, om 11:00 UTC
Verwachting geldig van 22 om 12 UTC tot 23 om 12 UTC
Wind 6 kt uit het zuiden
Zicht: 7000 m
Verspreide wolken op 1400 ft
Gebroken wolken op 2300 ft
Kans 30%
van 23 om 04 UTC tot 23 om 08 UTC
Zicht: 3000 m
nevel

TAF: FCPP 221100Z 2212/2312 18006KT 7000 SCT014 BKN023 PROB30 2304/2308 3000 BR

Waarnemingen en weersverwachtingen van meer dan 4000 vliegvelden (METAR en TAF).

De beschikbare stations zijn de gele en rode punten op de kaart.

Ga met uw muis naar het station om de naam te zien.

Klik dan om waarnemingen en weersverwachtingen te zien.

kaart wijzigen: klik op de groene knoppen met een zwart kruis om in te zoomen, op de groene knop met een streepje om uit te zoomen of op de groene pijlen voor aangrenzende kaarten.


METAR-TAF: